Weather observations for the past three days for
Jacksonville, Cherokee County Airport
Metric (Imperial)
Date Time (cdt) Wind (kph) Vis. (km) Weather Sky Cond. Temperature (ºC) Relative Humidity Wind Chill (°C) Heat Index (°C) Pressure Precipitation (cm)
Air Dwpt 6 hour altimeter (cm) sea level (mb) 1 hr 3 hr 6 hr
Max. Min.
07 16:15 NE 7 14.48 A Few Clouds FEW190 18.5 13.1 71% 76.12 0.0
07 15:15 E 7 14.48 A Few Clouds FEW190 18.5 12.6 69% 76.17 0.0
07 14:55 N 7 14.48 Partly Cloudy FEW200 SCT220 18.8 12.4 67% 76.2 0.0
07 14:35 Vrbl 9 14.48 Partly Cloudy SCT210 SCT340 19.2 12.7 66% 76.23 0.0
07 14:15 N 15 14.48 Mostly Cloudy FEW200 SCT250 SCT300 BKN340 18.7 12.2 66% 76.2 0.0
07 13:55 NE 13 14.48 Mostly Cloudy FEW210 SCT300 SCT330 BKN370 18.8 12.4 67% 76.2 0.0
07 13:35 N 15 14.48 Partly Cloudy FEW210 SCT250 SCT320 SCT350 18.8 12.4 67% 76.23 0.0
07 13:15 N 15 14.48 Partly Cloudy FEW220 SCT340 19.1 12.1 64% 76.25 0.0
07 12:55 NE 17 12.87 Partly Cloudy FEW230 SCT340 SCT370 18.7 11.8 18.8 11.2 64% 76.28 0.0
07 12:35 N 17 12.87 Partly Cloudy FEW240 SCT310 SCT340 18.4 11.6 65% 76.28 0.0
07 12:15 N 17 14.48 A Few Clouds FEW240 18.7 11.8 64% 76.28 0.0
07 11:55 NE 20 14.48 Partly Cloudy SCT240 17.7 11.3 66% 76.25 0.0
07 11:35 NE 20 12.87 Mostly Cloudy SCT240 SCT290 BKN370 18.3 11.6 65% 76.3 0.0
07 11:15 NE 22 14.48 A Few Clouds FEW230 17.8 11.5 67% 76.28 0.0
07 10:55 NE 15 14.48 Partly Cloudy FEW200 SCT230 16.2 11.1 72% 76.33 0.0
07 10:35 NE 17 16.09 Partly Cloudy FEW180 SCT360 15 10.7 76% 76.33 0.0
07 10:15 NE 17 16.09 Partly Cloudy FEW170 SCT370 14.2 10.5 79% 76.33 0.0
07 09:55 NE 15 16.09 Mostly Cloudy SCT170 SCT210 BKN380 13.8 11 83% 76.35 0.0
07 09:35 N 11 16.09 Partly Cloudy SCT170 13.3 10.8 85% 76.35 0.0
07 09:15 N 13 16.09 Partly Cloudy SCT170 SCT220 12.7 10.7 88% 76.33 0.0
07 08:55 NE 17 16.09 Partly Cloudy SCT170 12.5 10.5 88% 76.38 0.0
07 08:35 N 11 16.09 Fair CLR 12.2 10.6 90% 76.38 0.0
07 08:15 N 9 14.48 A Few Clouds FEW350 11.9 10.4 91% 76.35 0.0
07 07:55 N 17 14.48 Partly Cloudy SCT210 11.5 10.2 92% 76.33 0.0
07 07:35 N 13 14.48 Mostly Cloudy BKN200 11.3 10.2 93% 76.3 0.0
07 07:15 N 13 14.48 Partly Cloudy SCT200 11.3 10.2 93% 76.3 0.0
07 06:55 N 11 14.48 Fair CLR 11.1 10.2 12.6 11.1 94% 76.3 0.0
07 06:35 N 11 16.09 Fair CLR 11.2 10.2 94% 76.28 0.0
07 06:15 N 9 16.09 Fair CLR 11.3 10.2 93% 76.23 0.0
07 05:55 Vrbl 7 16.09 A Few Clouds FEW022 11.5 10.3 92% 76.23 0.0
07 05:35 NE 11 16.09 A Few Clouds FEW021 11.7 10.3 91% 76.17 0.0
07 05:15 NE 11 16.09 Mostly Cloudy BKN020 11.9 10.1 89% 76.12 0.0
07 04:55 NE 15 16.09 Overcast OVC021 12 10.4 90% 76.07 0.0
07 04:35 NE 19 16.09 Overcast OVC022 12 10.5 91% 76.1 0.0
07 04:15 NE 20 16.09 Overcast OVC021 12 10.6 91% 76.1 0.0
07 03:55 NE 13 16.09 Partly Cloudy SCT022 11.9 11 94% 76.1 0.0
07 03:35 NE 19 16.09 A Few Clouds FEW022 12.1 11.1 94% 76.1 0.0
07 03:15 NE 15 16.09 Partly Cloudy FEW010 SCT023 12.1 11.6 97% 76.1 0.0
07 02:55 NE 15 16.09 Overcast OVC008 12.2 11.9 98% 76.1 0.0
07 02:35 NE 19 16.09 Overcast OVC007 12.2 12.1 99% 76.12 0.0
07 02:15 NE 15 G 30 16.09 Overcast OVC007 12.3 12.1 99% 76.12 0.0
07 01:55 NE 17 16.09 Overcast OVC007 12.4 12.2 99% 76.17 0.0
07 01:35 NE 15 16.09 Overcast OVC007 12.5 12.4 99% 76.15 0.0
07 01:15 N 15 16.09 Overcast OVC007 12.5 12.3 99% 76.15 0.0
07 00:55 N 19 G 30 16.09 Overcast OVC006 12.6 12.4 15.9 12.6 99% 76.17 0.0
07 00:35 NE 17 16.09 Overcast OVC006 12.7 12.7 100% 76.17 0.0
07 00:15 N 20 G 30 16.09 Overcast OVC004 12.8 12.8 100% 76.15 0.0
06 23:55 NE 15 G 31 16.09 Overcast OVC004 13.2 13.2 100% 76.15 0.0
06 23:35 NE 11 16.09 Overcast OVC004 13.4 13.4 100% 76.15 0.0
06 23:15 N 17 16.09 Overcast OVC004 14.1 14.1 100% 76.12 0.0
06 22:55 NE 19 16.09 Overcast OVC005 14.3 14.3 100% 76.1 0.0
06 22:35 NE 15 16.09 Overcast BKN003 OVC010 14.3 14.3 100% 76.1 0.0
06 22:15 N 19 9.66 Fog/Mist OVC003 14.9 14.9 100% 76.07 0.0
06 21:55 NE 15 14.48 Overcast OVC004 14.9 14.9 100% 76.02 0.0
06 21:35 NE 11 16.09 Overcast OVC003 15.2 15.2 100% 76.02 0.0
06 21:15 NE 20 G 28 16.09 Overcast OVC003 15.4 15.4 100% 75.95 0.0
06 20:55 NE 15 14.48 Overcast OVC003 15.5 15.5 100% 75.95 0.0
06 20:35 N 13 16.09 Overcast OVC004 15.6 15.6 100% 75.92 0.0
06 20:15 N 11 16.09 Overcast OVC004 15.7 15.7 100% 75.9 0.0
06 19:55 N 13 16.09 Overcast OVC005 15.7 15.7 100% 75.87 0.0
06 19:35 N 15 G 28 16.09 Overcast OVC005 15.8 15.8 100% 75.87 0.0
06 19:15 N 17 16.09 Overcast OVC005 15.9 15.9 100% 75.87 0.0
06 18:55 N 11 16.09 Overcast OVC006 16 15.8 21.9 16 99% 75.87 0.0
06 18:35 N 15 16.09 Overcast OVC006 16.2 15.9 98% 75.87 0.0
06 18:15 N 15 16.09 Overcast OVC007 16.6 16 96% 75.84 0.0
06 17:55 N 11 16.09 Overcast OVC010 17.3 16.3 94% 75.84 0.0
06 17:35 N 13 16.09 Overcast OVC010 17.4 16.3 93% 75.82 0.0
06 17:15 N 13 16.09 Overcast OVC012 18.2 16.7 91% 75.82 0.0
06 16:55 Vrbl 11 16.09 Overcast OVC015 19 16.9 88% 75.79 0.0
06 16:35 N 11 16.09 Overcast OVC015 19.6 17.2 86% 75.79 0.0
06 16:15 N 9 16.09 Overcast OVC015 19.7 17.1 85% 75.79 0.0
06 15:55 NE 11 16.09 Overcast OVC015 20.3 17.4 84% 75.77 0.0
06 15:35 N 13 16.09 Overcast OVC016 19.8 17.2 85% 75.79 0.0
06 15:15 NW 11 16.09 Overcast OVC016 20.6 17.8 84% 75.77 0.0
06 14:55 N 17 16.09 Overcast OVC014 21.8 18.5 82% 75.77 0.0
06 14:35 N 13 16.09 Mostly Cloudy BKN013 BKN065 21.7 18.7 83% 75.77 0.0
06 14:15 N 9 16.09 Partly Cloudy FEW008 SCT300 21.7 18.4 82% 75.77 0.0
06 13:55 E 6 16.09 Overcast BKN009 OVC350 20.5 17.6 84% 75.74 0.0
06 13:35 E 13 16.09 Overcast OVC009 19.4 17.1 87% 75.77 0.0
06 13:15 E 9 16.09 Overcast OVC009 18 16.2 89% 75.74 0.0
06 12:55 Vrbl 9 16.09 Overcast OVC009 17.2 15.7 24.3 16.5 91% 75.9 0.0
06 12:35 N 17 16.09 Overcast OVC009 16.7 15.4 92% 75.9 0.0
06 12:15 Vrbl 11 16.09 Overcast OVC009 16.8 15.7 93% 75.97 0.0
06 11:55 N 11 16.09 Overcast OVC009 17 15.9 93% 76 0.0
06 11:35 N 13 16.09 Overcast OVC009 17.3 16.4 94% 75.97 0.0
06 11:15 NW 9 16.09 Overcast OVC008 18 16.9 93% 75.95 0.0
06 10:55 N 11 16.09 Overcast OVC008 18.5 17.3 93% 75.87 0.0
06 10:35 Vrbl 7 16.09 Overcast OVC007 19 17.9 93% 75.84 0.0
06 10:15 N 15 16.09 Overcast OVC007 18.9 18.1 95% 75.82 0.0
06 09:55 NW 13 12.87 Overcast OVC010 20.2 19.2 94% 75.79 0.0
06 09:35 SW 6 14.48 Overcast BKN007 OVC013 24.1 23.8 98% 23 75.74 0.0
06 09:15 S 7 12.87 Overcast BKN006 OVC012 23.4 23.4 100% 75.74 0.0
06 08:55 S 7 11.27 Overcast SCT004 OVC010 22.8 22.8 100% 75.74 0.0
06 08:35 S 7 9.66 Fog/Mist BKN004 BKN009 OVC017 22.7 22.7 100% 75.74 0.0
06 08:15 S 7 9.66 Fog/Mist OVC004 22.5 22.5 100% 75.74 0.0
06 07:55 SW 7 9.66 Fog/Mist OVC003 22.5 22.5 100% 75.74 0.0
06 07:35 S 6 9.66 Fog/Mist OVC003 22.4 22.4 100% 75.72 0.0
06 07:15 S 7 9.66 Fog/Mist OVC002 22.3 22.3 100% 75.72 0.0
06 06:55 SW 7 9.66 Fog/Mist OVC002 22.3 22.3 23.6 22.2 100% 75.69 0.0
06 06:35 S 11 8.05 Fog/Mist OVC002 22.2 22.2 100% 75.67 0.0
06 06:15 S 9 11.27 Overcast OVC002 22.2 22.2 100% 75.64 0.0
06 05:55 S 11 11.27 Overcast OVC002 22.2 22.2 100% 75.62 0.0
06 05:35 S 13 11.27 Overcast OVC003 22.3 22.3 100% 75.62 0.0
06 05:15 S 15 12.87 Overcast OVC004 22.4 22.4 100% 75.59 0.0
06 04:55 S 15 12.87 Overcast OVC004 22.6 22.6 100% 75.62 0.0
06 04:35 S 11 11.27 Overcast OVC005 22.8 22.8 100% 75.59 0.0
06 04:15 S 15 11.27 Overcast OVC006 22.9 22.9 100% 75.59 0.0
06 03:55 S 15 11.27 Overcast BKN008 OVC013 23.1 23.1 100% 75.59 0.0
06 03:35 S 15 11.27 Overcast BKN008 OVC013 23.2 23.2 100% 75.62 0.0
06 03:15 S 11 11.27 Overcast OVC009 23.2 23.2 100% 75.59 0.0
06 02:55 S 11 11.27 Overcast OVC012 23.2 23.2 100% 75.59 0.0
06 02:35 S 15 12.87 Overcast OVC013 23.2 23 99% 75.59 0.0
06 02:15 S 13 12.87 Overcast OVC013 23.4 23.2 99% 75.59 0.0
06 01:55 S 17 11.27 Overcast OVC013 23.5 23.3 99% 75.59 0.0
06 01:35 Vrbl 11 12.87 Overcast OVC013 23.5 23.3 99% 75.62 0.0
06 00:55 S 11 11.27 Overcast BKN010 OVC015 23.6 23.5 27 23.6 99% 75.62 0.0
06 00:35 S 9 12.87 Overcast OVC010 23.7 23.4 98% 75.62 0.0
06 00:15 S 9 12.87 Overcast OVC010 23.8 23.5 98% 75.62 0.0
05 23:55 SW 11 12.87 Partly Cloudy SCT012 23.9 23.4 97% 23 75.59 0.0
05 23:35 S 13 12.87 Fair CLR 23.9 23.4 97% 23 75.54 0.0
05 23:15 S 15 12.87 Fair CLR 24 23.4 96% 23 75.51 0.0
05 22:55 S 19 12.87 Fair CLR 24.1 23 94% 23 75.51 0.0
05 22:35 S 15 14.48 Fair CLR 24.3 22.8 91% 24 75.51 0.0
05 22:15 S 15 12.87 Fair CLR 24.7 22.6 88% 25 75.51 0.0
05 21:55 S 15 14.48 Fair CLR 25 22.6 87% 26 75.49 0.0
05 21:35 S 15 14.48 Partly Cloudy SCT050 25.4 22.6 85% 27 75.49 0.0
05 21:15 S 15 14.48 Overcast FEW036 OVC050 25.7 22.6 83% 27 75.49 0.0
05 20:55 S 11 14.48 Overcast OVC044 25.9 22.8 83% 28 75.49 0.0
05 20:35 S 13 14.48 Overcast OVC042 25.9 22.8 83% 28 75.46 0.0
05 20:15 S 11 12.87 Mostly Cloudy BKN042 25.9 22.9 84% 28 75.44 0.0
05 19:55 S 11 11.27 A Few Clouds FEW040 26.1 22.9 83% 28 75.39 0.0
05 19:35 S 11 11.27 Partly Cloudy SCT041 26.6 22.9 80% 29 75.39 0.0
05 19:15 S 15 11.27 Mostly Cloudy BKN041 27 22.8 78% 30 75.39 0.0
05 18:55 S 13 11.27 Mostly Cloudy BKN038 27.2 22.9 29.1 25.9 77% 30 75.39 0.0
05 18:35 S 19 G 26 11.27 Partly Cloudy SCT037 27.5 23.1 77% 31 75.36 0.0
05 18:15 S 15 11.27 Partly Cloudy SCT037 27.7 23 76% 31 75.36 0.0
05 17:55 S 15 14.48 A Few Clouds FEW035 28 22.9 74% 31 75.36 0.0
05 17:35 S 17 G 28 12.87 Fair CLR 27.9 22.7 73% 31 75.36 0.0
05 17:15 SW 17 G 33 12.87 Partly Cloudy SCT033 28.2 22.6 72% 31 75.36 0.0
05 16:55 S 17 G 31 12.87 Mostly Cloudy BKN033 28.6 23 72% 32 75.39 0.0
05 16:35 S 15 12.87 Mostly Cloudy BKN035 28.4 22.8 72% 32 75.39 0.0
05 16:15 S 20 G 33 12.87 Mostly Cloudy BKN031 BKN040 28.8 22.8 70% 32 75.41 0.0
05 15:55 SW 24 G 35 12.87 Partly Cloudy SCT031 28.8 22.6 69% 32 75.41 0.0
05 15:35 S 17 G 37 14.48 Partly Cloudy SCT028 28.9 23 71% 33 75.41 0.0
05 15:15 S 22 G 37 12.87 Mostly Cloudy BKN028 28.2 22.7 72% 31 75.44 0.0
05 14:55 SW 22 G 35 12.87 Partly Cloudy SCT027 28 22.9 74% 31 75.44 0.0
05 14:35 S 24 G 37 14.48 Mostly Cloudy BKN028 BKN270 27.7 22.6 74% 31 75.46 0.0
05 14:15 S 15 G 35 12.87 Mostly Cloudy BKN026 BKN031 BKN270 27.1 22.7 77% 30 75.46 0.0
05 13:55 SW 26 G 39 12.87 Mostly Cloudy BKN024 BKN029 27 22.2 75% 29 75.49 0.0
05 13:35 S 19 G 43 14.48 Mostly Cloudy SCT022 BKN027 BKN310 27 22.7 77% 29 75.49 0.0
05 13:15 S 30 G 44 14.48 Overcast BKN022 BKN029 OVC310 26.6 22.4 78% 29 75.51 0.0
05 12:55 SW 17 G 31 14.48 Overcast SCT020 OVC028 26 22.4 26 20.1 81% 28 75.54 0.0
05 12:35 SW 24 G 35 14.48 Overcast BKN023 OVC028 25.4 22.3 83% 27 75.54 0.0
05 12:15 SW 17 G 28 16.09 Overcast BKN019 OVC025 25 22.1 84% 26 75.54 0.0
05 11:55 S 17 G 35 16.09 Overcast BKN016 OVC021 24.3 21.8 86% 24 75.54 0.0
05 11:35 SW 24 G 39 16.09 Overcast OVC017 24.2 21.6 85% 24 75.54 0.0
05 11:15 S 20 G 35 16.09 Overcast OVC015 23.9 21.7 88% 24 75.54 0.0
05 10:55 S 22 G 33 16.09 Overcast OVC013 23.3 21.5 90% 75.54 0.0
05 10:35 S 15 G 28 9.66 Fog/Mist OVC013 22.6 21.2 92% 75.57 0.0
05 10:15 S 13 12.87 Overcast OVC012 22 21 94% 75.59 0.0
05 09:55 S 15 12.87 Overcast OVC012 21.4 20.7 96% 75.54 0.0
05 09:35 S 15 12.87 Overcast OVC011 21.4 20.6 95% 75.54 0.0
05 09:15 SW 15 12.87 Overcast OVC011 21 20.4 96% 75.57 0.0
05 08:55 S 15 12.87 Overcast OVC013 20.9 20.3 96% 75.54 0.0
05 08:35 S 15 14.48 Overcast BKN013 OVC019 20.8 20.1 96% 75.54 0.0
05 08:15 S 15 12.87 Overcast OVC010 20.4 20 98% 75.54 0.0
05 07:55 S 15 14.48 Overcast OVC010 20.3 19.8 97% 75.54 0.0
05 07:35 S 15 14.48 Overcast OVC011 20.3 19.8 97% 75.51 0.0
05 07:15 S 19 G 30 14.48 Overcast OVC011 20.2 19.7 97% 75.51 0.0
05 06:55 S 17 G 31 14.48 Overcast OVC011 20 19.5 20 19 97% 75.46 0.0
05 06:35 S 17 G 30 16.09 Overcast OVC011 20 19.5 97% 75.49 0.0
05 06:15 S 19 G 31 14.48 Overcast OVC010 20 19.4 96% 75.49 0.0
05 05:55 S 20 16.09 Overcast OVC012 19.9 19.2 96% 75.49 0.0
05 05:35 S 24 G 39 16.09 Overcast OVC011 19.8 19.1 96% 75.46 0.0
05 05:15 S 20 G 30 16.09 Overcast OVC011 19.6 19 96% 75.46 0.0
05 04:55 S 19 G 31 16.09 Overcast OVC011 19.5 18.8 96% 75.46 0.0
05 04:35 S 19 G 31 16.09 Overcast OVC012 19.4 18.7 96% 75.46 0.0
05 04:15 S 22 G 30 16.09 Overcast OVC013 19.4 18.7 96% 75.49 0.0
05 03:55 S 17 G 28 16.09 Overcast OVC014 19.3 18.6 96% 75.51 0.0
05 03:35 S 17 16.09 Mostly Cloudy BKN016 19.2 18.5 96% 75.54 0.0
05 03:15 S 15 16.09 A Few Clouds FEW016 19 18.4 96% 75.54 0.0
05 02:55 S 19 16.09 A Few Clouds FEW023 19.1 18.4 96% 75.54 0.0
05 02:35 S 19 G 31 16.09 Partly Cloudy SCT023 19.2 18.4 95% 75.57 0.0
05 02:15 S 17 G 30 16.09 Mostly Cloudy BKN023 19.3 18.3 94% 75.57 0.0
05 01:55 S 15 16.09 A Few Clouds FEW023 19.3 18.4 95% 75.59 0.0
05 01:35 S 17 16.09 Fair CLR 19.4 18.2 93% 75.62 0.0
05 01:15 S 19 16.09 Fair CLR 19.5 18.2 92% 75.62 0.0
05 00:55 S 19 16.09 Fair CLR 19.7 18.1 24.9 19.7 91% 75.62 0.0
05 00:35 S 15 G 30 16.09 Fair CLR 19.8 18 89% 75.62 0.0
05 00:15 S 15 G 26 16.09 A Few Clouds FEW240 20 17.9 88% 75.64 0.0
04 23:55 S 15 16.09 Mostly Cloudy BKN230 20.2 17.8 86% 75.64 0.0
04 23:35 S 15 16.09 Fair CLR 20.3 17.9 86% 75.62 0.0
04 23:15 S 17 16.09 Fair CLR 20.4 17.8 85% 75.64 0.0
04 22:55 S 17 16.09 Fair CLR 20.8 17.7 83% 75.64 0.0
04 22:35 S 20 16.09 Fair CLR 21.1 17.7 81% 75.64 0.0
04 22:15 S 20 G 33 16.09 Fair CLR 21.2 17.8 81% 75.64 0.0
04 21:55 S 19 G 30 16.09 Fair CLR 21.4 17.6 79% 75.62 0.0
04 21:35 S 13 14.48 Fair CLR 21.2 17.2 78% 75.64 0.0
04 21:15 S 17 14.48 Fair CLR 21.6 16.8 74% 75.64 0.0
04 20:55 S 17 14.48 Fair CLR 22.1 16.4 70% 75.62 0.0
04 20:35 S 11 14.48 Fair CLR 22.2 16.3 69% 75.62 0.0
04 20:15 S 9 12.87 Fair CLR 22.7 16 66% 75.59 0.0
04 19:55 S 11 12.87 Fair CLR 23.5 15.6 61% 75.59 0.0
04 19:35 S 15 G 28 11.27 Fair CLR 24 15.4 59% 25 75.59 0.0
04 19:15 S 11 11.27 Fair CLR 24.4 15.2 57% 26 75.62 0.0
04 18:55 S 15 11.27 Fair CLR 25 14.9 26.7 24.2 54% 26 75.62 0.0
04 18:35 S 20 12.87 Fair CLR 25.4 14.7 52% 26 75.62 0.0
04 18:15 S 17 12.87 Fair CLR 25.7 14.5 50% 26 75.64 0.0
04 17:55 S 22 12.87 Fair CLR 25.7 14.3 49% 26 75.67 0.0
04 17:35 S 19 G 28 12.87 Fair CLR 26.2 14.4 48% 27 75.67 0.0
04 17:15 S 15 12.87 Fair CLR 26.6 14.5 47% 27 75.69 0.0
04 16:55 S 22 G 35 12.87 Fair CLR 26.4 13.6 45% 27 75.72 0.0
04 16:35 SW 13 12.87 Fair CLR 26.6 13.8 45% 27 75.74 0.0
Date Time (cdt) Wind (kph) Vis. (km) Weather Sky Cond. Air Dwpt Max. Min. Relative Humidity Wind Chill (°C) Heat Index (°C) altimeter (cm) sea level (mb) 1 hr 3 hr 6 hr
6 hour
Temperature (ºC) Pressure Precipitation (cm)